Time;durP1;ratioP1;P1;durP2;ratioP2;P2;SDS_P1;SDS_P2;PMS_P1;PMS_P2;Temp;Humidity;BMP_temperature;BMP_pressure;BME280_temperature;BME280_humidity;BME280_pressure;Samples;Min_cycle;Max_cycle;Signal;HPM_P1;HPM_P2
2023/11/01 00:01:46;;;;;;;3.50;2.87;;;10.50;93.70;;;9.79;99.72;97370.72;4968772;28;20442;-81
2023/11/01 00:04:13;;;;;;;4.00;3.67;;;10.50;93.70;;;9.84;100.00;97368.16;4970407;28;20490;-81
2023/11/01 00:06:41;;;;;;;3.80;3.37;;;10.40;94.10;;;9.83;98.89;97361.09;4970009;28;20446;-81
2023/11/01 00:09:08;;;;;;;3.27;3.03;;;10.50;94.10;;;9.81;100.00;97378.56;4970858;28;20465;-80
2023/11/01 00:11:36;;;;;;;3.50;3.17;;;10.50;93.90;;;9.80;100.00;97376.91;4974787;28;20579;-82
2023/11/01 00:14:05;;;;;;;5.97;3.70;;;10.50;94.10;;;9.82;99.89;97374.81;4972173;28;20928;-80
2023/11/01 00:16:33;;;;;;;3.60;2.80;;;10.40;94.20;;;9.80;100.00;97383.16;4970927;28;20445;-81
2023/11/01 00:19:01;;;;;;;3.23;3.00;;;10.50;94.20;;;9.76;99.77;97380.06;4976215;28;20456;-85
2023/11/01 00:21:28;;;;;;;4.00;3.00;;;10.50;94.20;;;9.75;100.00;97377.59;4951809;28;20457;-81
2023/11/01 00:23:55;;;;;;;3.57;3.27;;;10.40;94.20;;;9.80;100.00;97388.53;4971439;28;20631;-82
2023/11/01 00:26:23;;;;;;;3.40;3.10;;;10.40;94.30;;;9.75;100.00;97381.13;4972527;28;20457;-82
2023/11/01 00:28:50;;;;;;;2.77;2.53;;;10.40;94.20;;;9.68;100.00;97384.94;4966547;28;20938;-78
2023/11/01 00:31:18;;;;;;;5.07;3.30;;;10.40;93.90;;;9.68;100.00;97390.34;4981486;28;20453;-82
2023/11/01 00:33:46;;;;;;;3.60;3.20;;;10.40;94.10;;;9.63;100.00;97393.72;4972158;28;20456;-80
2023/11/01 00:36:13;;;;;;;2.83;2.63;;;10.40;94.20;;;9.67;100.00;97392.19;4963603;28;21241;-82
2023/11/01 00:38:40;;;;;;;3.00;2.70;;;10.40;93.80;;;9.76;98.94;97392.72;4952722;28;20508;-83
2023/11/01 00:41:09;;;;;;;3.40;2.97;;;10.40;93.50;;;9.42;98.52;97325.69;4973881;28;20482;-81
2023/11/01 00:43:36;;;;;;;3.93;2.83;;;10.50;93.10;;;9.81;97.73;97383.94;4971833;28;20556;-84
2023/11/01 00:46:04;;;;;;;3.23;2.30;;;10.50;92.70;;;9.89;96.78;97392.56;4969012;28;20516;-86
2023/11/01 00:48:33;;;;;;;3.20;2.90;;;10.60;92.70;;;9.84;97.56;97395.13;4968491;28;20501;-82
2023/11/01 00:51:00;;;;;;;2.90;2.50;;;10.50;92.40;;;9.83;97.20;97395.34;4947912;28;20526;-83
2023/11/01 00:53:28;;;;;;;2.80;2.60;;;10.50;92.30;;;9.68;97.43;97391.16;4971406;28;20459;-81
2023/11/01 00:55:55;;;;;;;3.80;2.70;;;10.50;92.50;;;9.70;97.90;97394.44;4954147;28;20444;-79
2023/11/01 00:58:23;;;;;;;3.50;2.40;;;10.40;92.50;;;9.64;97.04;97398.88;4954284;28;21109;-82
2023/11/01 01:00:51;;;;;;;2.97;2.67;;;10.40;92.40;;;9.52;98.08;97381.78;4968972;28;20449;-81
2023/11/01 01:03:18;;;;;;;2.80;2.60;;;10.40;92.50;;;9.62;98.36;97389.38;4953679;28;20468;-82
2023/11/01 01:05:46;;;;;;;2.70;2.40;;;10.30;92.80;;;9.61;98.09;97377.75;4971649;28;20477;-83
2023/11/01 01:08:14;;;;;;;2.93;2.67;;;10.30;92.60;;;9.47;98.32;97389.72;4973294;28;20453;-80
2023/11/01 01:10:41;;;;;;;2.70;2.50;;;10.20;92.80;;;9.41;99.37;97396.84;4979385;28;20519;-78
2023/11/01 01:13:08;;;;;;;4.20;3.23;;;10.10;93.00;;;9.42;99.28;97393.09;4953160;28;20452;-83
2023/11/01 01:15:36;;;;;;;4.60;3.10;;;10.10;93.60;;;9.29;100.00;97379.75;4955719;28;20454;-84
2023/11/01 01:18:04;;;;;;;3.10;2.80;;;10.00;94.10;;;9.37;100.00;97379.44;4956411;28;20545;-81
2023/11/01 01:20:32;;;;;;;3.67;2.70;;;10.00;94.60;;;9.09;100.00;97342.22;4975542;28;20545;-81
2023/11/01 01:23:00;;;;;;;3.57;2.93;;;10.00;94.30;;;9.26;100.00;97372.13;4969310;28;20554;-85
2023/11/01 01:25:28;;;;;;;4.80;2.97;;;9.90;95.00;;;9.16;100.00;97367.22;4954601;28;20844;-81
2023/11/01 01:27:56;;;;;;;3.00;2.80;;;9.80;95.10;;;9.04;100.00;97362.56;4954950;28;20529;-83
2023/11/01 01:30:23;;;;;;;3.50;3.10;;;9.80;95.60;;;9.02;100.00;97361.97;4969636;28;20533;-85
2023/11/01 01:32:50;;;;;;;3.50;2.70;;;9.70;95.80;;;9.01;100.00;97370.28;4969432;28;20456;-84
2023/11/01 01:35:18;;;;;;;3.43;2.20;;;9.70;95.90;;;8.92;100.00;97361.66;4970062;28;20460;-83
2023/11/01 01:37:45;;;;;;;3.47;2.60;;;9.60;96.30;;;8.96;100.00;97362.84;4955263;28;20544;-82
2023/11/01 01:40:15;;;;;;;2.77;2.47;;;9.60;96.70;;;8.87;100.00;97364.16;4956818;28;20461;-82
2023/11/01 01:42:42;;;;;;;4.17;3.00;;;9.60;96.50;;;8.83;100.00;97361.09;4968751;28;20458;-81
2023/11/01 01:45:11;;;;;;;3.40;3.10;;;9.60;96.70;;;8.89;100.00;97362.91;4953832;28;20802;-79
2023/11/01 01:47:38;;;;;;;2.70;2.50;;;9.60;96.80;;;9.00;100.00;97355.97;4990170;28;20456;-79
2023/11/01 01:50:08;;;;;;;3.50;3.20;;;9.60;97.10;;;8.62;100.00;97308.44;4954061;28;20455;-79
2023/11/01 01:52:36;;;;;;;2.60;2.43;;;9.60;96.90;;;9.00;100.00;97358.66;4972303;28;20449;-79
2023/11/01 01:55:06;;;;;;;4.67;2.60;;;9.70;97.00;;;8.85;100.00;97350.09;4955057;28;20444;-77
2023/11/01 01:57:35;;;;;;;5.77;3.10;;;9.70;96.80;;;8.91;100.00;97357.31;4979653;28;20464;-82
2023/11/01 02:00:05;;;;;;;3.30;2.70;;;9.60;96.80;;;8.89;100.00;97354.00;4954945;28;20463;-82
2023/11/01 02:02:32;;;;;;;2.90;2.17;;;9.60;96.80;;;8.91;100.00;97354.63;4958034;28;20465;-83
2023/11/01 02:04:59;;;;;;;2.90;2.43;;;9.60;96.80;;;8.96;100.00;97356.66;4968959;28;20481;-81
2023/11/01 02:07:27;;;;;;;2.30;2.17;;;9.60;96.60;;;8.87;100.00;97353.38;4956848;28;20462;-80
2023/11/01 02:09:54;;;;;;;2.93;2.63;;;9.60;96.30;;;8.76;100.00;97347.69;4970131;28;20926;-83
2023/11/01 02:12:25;;;;;;;2.50;2.30;;;9.60;96.40;;;8.63;100.00;97337.03;4945434;28;20465;-81
2023/11/01 02:14:54;;;;;;;2.63;2.43;;;9.60;96.00;;;8.87;100.00;97354.22;4966571;28;20811;-80
2023/11/01 02:17:21;;;;;;;2.53;2.30;;;9.60;95.90;;;8.84;100.00;97349.28;4973540;28;20456;-84
2023/11/01 02:19:49;;;;;;;3.53;2.40;;;9.60;95.60;;;8.92;100.00;97351.69;4968824;28;20474;-83
2023/11/01 02:22:17;;;;;;;3.00;2.40;;;9.60;95.50;;;8.85;100.00;97342.84;4956690;28;20550;-85
2023/11/01 02:24:45;;;;;;;3.97;2.67;;;9.60;95.60;;;8.67;100.00;97351.69;4967319;28;20985;-83
2023/11/01 02:27:13;;;;;;;3.33;2.30;;;9.60;95.40;;;8.84;100.00;97337.66;4966802;28;20456;-82
2023/11/01 02:29:40;;;;;;;1.90;1.80;;;9.60;95.50;;;8.89;100.00;97319.00;4965120;28;20880;-83
2023/11/01 02:32:09;;;;;;;2.40;2.20;;;9.70;95.20;;;9.02;100.00;97332.34;4950931;28;20464;-80
2023/11/01 02:34:37;;;;;;;3.47;2.83;;;9.70;94.50;;;8.95;99.35;97331.56;4959773;28;20489;-82
2023/11/01 02:37:04;;;;;;;2.83;2.63;;;9.70;94.10;;;9.00;99.28;97337.09;4969488;28;20460;-82
2023/11/01 02:39:31;;;;;;;2.70;2.43;;;9.70;94.10;;;8.91;99.56;97333.06;4966299;28;20464;-82
2023/11/01 02:42:00;;;;;;;3.07;2.50;;;9.70;94.00;;;8.72;100.00;97321.41;4969885;28;20477;-82
2023/11/01 02:44:28;;;;;;;4.37;2.50;;;9.70;94.00;;;8.69;100.00;97336.13;4956492;28;20512;-83
2023/11/01 02:46:55;;;;;;;3.47;2.90;;;9.70;93.80;;;8.85;100.00;97333.94;4963220;28;20455;-80
2023/11/01 02:49:24;;;;;;;3.13;2.87;;;9.70;93.50;;;9.00;100.00;97322.81;4959530;28;20544;-81
2023/11/01 02:51:51;;;;;;;2.83;2.63;;;9.70;94.00;;;8.99;99.49;97327.38;4956709;28;20504;-86
2023/11/01 02:54:18;;;;;;;2.77;2.50;;;9.70;93.80;;;8.75;100.00;97332.56;4981334;28;20460;-83
2023/11/01 02:56:46;;;;;;;3.13;2.83;;;9.80;93.70;;;8.76;100.00;97336.91;4976092;28;20457;-85
2023/11/01 02:59:14;;;;;;;2.80;2.60;;;9.80;94.20;;;8.71;100.00;97333.22;4960535;28;20475;-82
2023/11/01 03:01:42;;;;;;;3.47;3.20;;;9.70;94.30;;;8.39;100.00;97290.97;4958229;28;20511;-81
2023/11/01 03:04:10;;;;;;;4.07;3.07;;;9.70;94.70;;;8.66;100.00;97328.50;4965944;28;20443;-82
2023/11/01 03:06:37;;;;;;;3.40;3.10;;;9.70;95.50;;;8.55;100.00;97335.44;4970787;28;20574;-81
2023/11/01 03:09:04;;;;;;;4.10;3.33;;;9.60;95.80;;;8.59;100.00;97331.25;4954196;28;20472;-79
2023/11/01 03:11:32;;;;;;;3.80;3.13;;;9.60;96.40;;;8.58;100.00;97326.91;4977612;28;20531;-81
2023/11/01 03:14:00;;;;;;;8.27;3.33;;;9.60;96.80;;;8.50;100.00;97327.19;4969887;28;20515;-83
2023/11/01 03:16:29;;;;;;;3.73;3.33;;;9.50;97.10;;;8.33;100.00;97329.56;4969557;28;20812;-80
2023/11/01 03:18:56;;;;;;;4.63;4.20;;;9.40;97.80;;;8.36;100.00;97327.25;4968844;28;20504;-83
2023/11/01 03:21:23;;;;;;;4.13;3.73;;;9.40;99.00;;;8.43;100.00;97316.44;4970226;28;20985;-82
2023/11/01 03:23:51;;;;;;;5.10;4.00;;;9.40;99.90;;;8.37;100.00;97306.53;4955430;28;20460;-81
2023/11/01 03:26:18;;;;;;;5.10;4.13;;;9.40;99.60;;;8.44;100.00;97301.94;4969990;28;20480;-82
2023/11/01 03:28:45;;;;;;;6.63;3.60;;;9.50;99.90;;;8.37;100.00;97295.75;4977498;28;20457;-79
2023/11/01 03:31:13;;;;;;;4.60;4.10;;;9.40;99.90;;;8.39;100.00;97293.66;4970818;28;20462;-81
2023/11/01 03:33:42;;;;;;;4.80;4.40;;;9.40;99.90;;;8.23;100.00;97285.09;4972778;28;20551;-80
2023/11/01 03:36:09;;;;;;;5.30;4.00;;;9.40;99.90;;;8.37;100.00;97285.00;4967719;28;20459;-80
2023/11/01 03:38:37;;;;;;;4.30;3.67;;;9.40;99.90;;;8.40;100.00;97314.16;4952307;28;21222;-82
2023/11/01 03:41:05;;;;;;;5.00;4.60;;;9.30;99.90;;;8.47;100.00;97295.28;4968627;28;20934;-82
2023/11/01 03:43:33;;;;;;;4.10;3.70;;;9.40;99.90;;;8.43;100.00;97297.59;4953185;28;20483;-80
2023/11/01 03:46:00;;;;;;;4.63;4.20;;;9.40;99.90;;;8.29;100.00;97301.44;4960684;28;20488;-82
2023/11/01 03:48:28;;;;;;;4.80;4.20;;;9.30;99.90;;;8.33;100.00;97294.56;4950557;28;20455;-82
2023/11/01 03:50:57;;;;;;;5.57;4.17;;;9.30;99.90;;;8.29;100.00;97302.25;4980552;28;20524;-79
2023/11/01 03:53:25;;;;;;;5.90;4.50;;;9.30;99.90;;;8.04;100.00;97264.53;4948226;28;21188;-80
2023/11/01 03:55:52;;;;;;;5.60;4.80;;;9.30;99.90;;;8.26;100.00;97300.00;4973932;28;20536;-78
2023/11/01 03:58:19;;;;;;;5.03;4.57;;;9.20;99.90;;;8.23;100.00;97301.25;4951816;28;20438;-80
2023/11/01 04:00:47;;;;;;;4.73;4.23;;;9.20;99.90;;;8.17;100.00;97296.75;4973797;28;20468;-82
2023/11/01 04:03:14;;;;;;;5.57;5.07;;;9.20;99.90;;;8.17;100.00;97296.75;4974283;28;20461;-82
2023/11/01 04:05:42;;;;;;;4.50;4.10;;;9.20;99.90;;;8.21;100.00;97299.84;4975280;28;20476;-82
2023/11/01 04:08:12;;;;;;;6.80;5.37;;;9.20;99.90;;;8.21;100.00;97287.19;4976734;28;20509;-83
2023/11/01 04:10:39;;;;;;;6.03;5.30;;;9.20;99.90;;;8.22;100.00;97299.59;4990400;28;20478;-84
2023/11/01 04:13:07;;;;;;;5.90;5.00;;;9.30;99.90;;;8.34;100.00;97286.28;4957820;28;20487;-81
2023/11/01 04:15:34;;;;;;;6.60;5.10;;;9.30;99.90;;;8.25;100.00;97284.06;4979493;28;20924;-83
2023/11/01 04:18:03;;;;;;;6.27;5.30;;;9.30;99.90;;;8.31;100.00;97278.63;4972351;28;20569;-80
2023/11/01 04:20:31;;;;;;;5.03;4.53;;;9.30;99.90;;;8.27;100.00;97284.69;4978010;28;20473;-81
2023/11/01 04:22:59;;;;;;;8.87;4.90;;;9.30;99.90;;;8.29;100.00;97296.06;4978402;28;20457;-80
2023/11/01 04:25:28;;;;;;;7.20;5.50;;;9.30;99.90;;;8.31;100.00;97277.81;4965635;28;20490;-82
2023/11/01 04:27:57;;;;;;;6.37;5.60;;;9.30;99.90;;;8.33;100.00;97275.72;4997576;28;20447;-81
2023/11/01 04:30:26;;;;;;;7.93;5.90;;;9.30;99.90;;;8.27;100.00;97284.69;4966299;28;20454;-81
2023/11/01 04:32:54;;;;;;;6.67;5.80;;;9.30;99.90;;;8.30;100.00;97278.84;4976800;28;20460;-82
2023/11/01 04:35:21;;;;;;;6.40;5.67;;;9.30;99.90;;;8.25;100.00;97282.19;4956052;28;21030;-82
2023/11/01 04:37:49;;;;;;;8.17;5.60;;;9.30;99.90;;;8.19;100.00;97281.19;4972830;28;20465;-82
2023/11/01 04:40:16;;;;;;;7.23;6.53;;;9.20;99.90;;;8.26;100.00;97274.94;4977381;28;20913;-78
2023/11/01 04:42:45;;;;;;;9.67;6.80;;;9.20;99.90;;;8.25;100.00;97275.97;4965864;28;20473;-82
2023/11/01 04:45:13;;;;;;;6.50;5.23;;;9.20;99.90;;;8.25;100.00;97266.06;4974941;28;20468;-82
2023/11/01 04:47:42;;;;;;;6.50;5.90;;;9.30;99.90;;;8.23;100.00;97258.19;4969569;28;20470;-80
2023/11/01 04:50:10;;;;;;;15.07;6.93;;;9.30;99.90;;;8.29;100.00;97255.69;4976225;28;20450;-81
2023/11/01 04:52:39;;;;;;;7.43;6.73;;;9.30;99.90;;;8.26;100.00;97256.09;4969823;28;20463;-79
2023/11/01 04:55:08;;;;;;;6.67;6.00;;;9.30;99.90;;;8.22;100.00;97256.53;4955207;28;20517;-78
2023/11/01 04:57:36;;;;;;;7.07;6.37;;;9.30;99.90;;;8.30;100.00;97262.72;4970287;28;20577;-83
2023/11/01 05:00:08;;;;;;;8.13;6.40;;;9.30;99.90;;;8.29;100.00;97267.25;4969385;28;20533;-81
2023/11/01 05:02:35;;;;;;;7.77;6.57;;;9.30;99.90;;;8.31;100.00;97264.34;4970593;28;20457;-84
2023/11/01 05:05:05;;;;;;;9.20;7.23;;;9.30;99.90;;;8.33;100.00;97268.44;4961596;28;20465;-81
2023/11/01 05:07:32;;;;;;;7.70;6.80;;;9.40;99.90;;;8.37;100.00;97268.84;4967745;28;20458;-81
2023/11/01 05:10:01;;;;;;;7.40;6.60;;;9.40;99.90;;;8.43;100.00;97262.59;4961234;28;20888;-80
2023/11/01 05:12:29;;;;;;;7.67;6.87;;;9.40;99.90;;;8.45;100.00;97244.34;4959901;28;20456;-82
2023/11/01 05:14:56;;;;;;;7.60;6.90;;;9.40;99.90;;;8.42;100.00;97260.13;4974239;28;20931;-82
2023/11/01 05:17:25;;;;;;;8.77;7.30;;;9.40;99.90;;;8.48;100.00;97246.59;4968188;28;20559;-84
2023/11/01 05:19:52;;;;;;;7.20;6.50;;;9.40;99.90;;;8.25;100.00;97243.69;4954881;28;20501;-79
2023/11/01 05:22:19;;;;;;;6.43;5.93;;;9.30;99.90;;;8.29;100.00;97245.72;4951425;28;20789;-82
2023/11/01 05:24:49;;;;;;;7.93;6.57;;;9.30;99.90;;;8.38;100.00;97232.81;4968057;28;20554;-81
2023/11/01 05:27:17;;;;;;;6.80;6.20;;;9.40;99.90;;;8.26;100.00;97224.63;4971112;28;20483;-82
2023/11/01 05:29:45;;;;;;;6.73;6.13;;;9.30;99.90;;;8.36;100.00;97234.91;4973613;28;21138;-83
2023/11/01 05:32:12;;;;;;;7.10;6.40;;;9.40;99.90;;;8.13;100.00;97197.84;4975778;28;20571;-83
2023/11/01 05:34:41;;;;;;;6.30;5.70;;;9.30;99.90;;;8.31;100.00;97232.06;4972721;28;20469;-81
2023/11/01 05:37:11;;;;;;;6.70;6.00;;;9.30;99.90;;;8.39;100.00;97229.06;4953964;28;20484;-83
2023/11/01 05:39:40;;;;;;;7.70;6.10;;;9.30;99.90;;;8.40;100.00;97228.03;4951801;28;20449;-82
2023/11/01 05:42:08;;;;;;;7.13;6.43;;;9.30;99.90;;;8.40;100.00;97222.63;4968188;28;20457;-81
2023/11/01 05:44:35;;;;;;;5.87;4.83;;;9.30;99.90;;;8.33;100.00;97229.97;4954161;28;20996;-84
2023/11/01 05:47:03;;;;;;;7.37;6.27;;;9.40;99.90;;;8.35;100.00;97228.72;4949603;28;20469;-80
2023/11/01 05:49:31;;;;;;;6.60;5.60;;;9.30;99.90;;;8.38;100.00;97221.22;4967764;28;20448;-82
2023/11/01 05:52:00;;;;;;;7.80;5.80;;;9.40;99.90;;;8.39;100.00;97222.88;4960529;28;20457;-84
2023/11/01 05:54:27;;;;;;;8.83;5.43;;;9.40;99.90;;;8.40;100.00;97232.59;4953016;28;20986;-81
2023/11/01 05:56:55;;;;;;;5.33;4.60;;;9.40;99.90;;;8.42;100.00;97225.97;4964643;28;20465;-83
2023/11/01 05:59:22;;;;;;;7.70;5.90;;;9.40;99.90;;;8.48;100.00;97238.53;4965761;28;20979;-83
2023/11/01 06:01:52;;;;;;;6.70;5.47;;;9.40;99.90;;;8.39;100.00;97228.25;4966939;28;21037;-83
2023/11/01 06:04:21;;;;;;;9.30;4.77;;;9.40;99.90;;;8.50;100.00;97236.47;4939770;28;20548;-81
2023/11/01 06:06:49;;;;;;;6.40;4.80;;;9.50;99.90;;;8.53;100.00;97243.28;4967341;28;20603;-81
2023/11/01 06:09:19;;;;;;;6.27;4.60;;;9.50;99.50;;;8.45;100.00;97241.66;4969545;28;20452;-81
2023/11/01 06:11:47;;;;;;;6.33;5.00;;;9.50;99.20;;;8.59;100.00;97236.19;4950452;28;21016;-81
2023/11/01 06:14:14;;;;;;;4.53;4.13;;;9.50;99.20;;;8.62;100.00;97241.13;4951190;28;20506;-80
2023/11/01 06:16:41;;;;;;;7.03;4.10;;;9.50;98.70;;;8.44;100.00;97239.19;4951479;28;20462;-81
2023/11/01 06:19:09;;;;;;;5.70;4.40;;;9.50;98.20;;;8.43;100.00;97219.53;4973285;28;20461;-80
2023/11/01 06:21:36;;;;;;;4.40;4.00;;;9.50;98.70;;;8.57;100.00;97236.41;4965536;28;20500;-82
2023/11/01 06:24:05;;;;;;;4.70;3.77;;;9.50;98.40;;;8.52;100.00;97238.09;4953628;28;20461;-83
2023/11/01 06:26:34;;;;;;;5.50;4.17;;;9.50;97.90;;;8.54;100.00;97238.72;4970407;28;20529;-83
2023/11/01 06:29:03;;;;;;;5.37;3.33;;;9.50;97.70;;;8.65;100.00;97237.97;4968946;28;20474;-82
2023/11/01 06:31:30;;;;;;;4.20;3.43;;;9.60;97.70;;;8.73;100.00;97231.50;4964836;28;20839;-82
2023/11/01 06:33:58;;;;;;;4.93;3.47;;;9.60;97.30;;;8.80;100.00;97232.25;4970572;28;20537;-84
2023/11/01 06:36:25;;;;;;;4.67;3.93;;;9.70;96.90;;;8.82;100.00;97222.06;4968205;28;20465;-83
2023/11/01 06:38:53;;;;;;;3.93;3.53;;;9.80;96.30;;;8.91;100.00;97220.72;4967217;28;20463;-82
2023/11/01 06:41:20;;;;;;;4.60;3.90;;;9.80;95.90;;;8.99;100.00;97210.72;4958372;28;20490;-82
2023/11/01 06:43:50;;;;;;;3.63;2.87;;;9.90;95.50;;;8.91;100.00;97219.91;4958437;28;20461;-82
2023/11/01 06:46:17;;;;;;;3.90;2.80;;;9.90;94.70;;;8.97;100.00;97221.69;4971589;28;20495;-78
2023/11/01 06:48:44;;;;;;;3.60;2.97;;;9.90;94.60;;;9.04;100.00;97218.94;4962774;28;20461;-82
2023/11/01 06:51:14;;;;;;;3.40;3.10;;;10.00;94.20;;;9.12;100.00;97223.19;4958010;28;20463;-83
2023/11/01 06:53:41;;;;;;;2.80;2.60;;;10.00;93.80;;;8.84;100.00;97214.59;4973542;28;20453;-82
2023/11/01 06:56:08;;;;;;;4.80;2.87;;;9.90;94.10;;;9.01;100.00;97227.47;4952596;28;21198;-83
2023/11/01 06:58:36;;;;;;;3.10;2.80;;;9.90;94.40;;;9.04;100.00;97221.63;4973018;28;20442;-84
2023/11/01 07:01:06;;;;;;;3.77;2.53;;;10.00;93.80;;;9.02;100.00;97213.78;4954792;28;20454;-83
2023/11/01 07:03:34;;;;;;;3.80;2.63;;;10.00;93.80;;;9.09;100.00;97210.19;4974597;28;20454;-79
2023/11/01 07:06:01;;;;;;;3.00;2.70;;;10.00;93.60;;;9.09;100.00;97215.56;4963001;28;20457;-81
2023/11/01 07:08:28;;;;;;;3.40;2.50;;;10.00;93.50;;;9.26;100.00;97226.56;4952741;28;20460;-84
2023/11/01 07:10:56;;;;;;;2.70;2.50;;;10.10;93.20;;;9.26;100.00;97213.09;4982155;28;20466;-82
2023/11/01 07:13:23;;;;;;;2.77;2.57;;;10.20;92.70;;;9.25;100.00;97211.41;4968475;28;20478;-82
2023/11/01 07:15:51;;;;;;;2.87;2.67;;;10.20;92.40;;;9.37;100.00;97206.09;4985360;28;20462;-82
2023/11/01 07:18:20;;;;;;;2.63;2.30;;;10.30;92.70;;;9.51;99.61;97202.19;4936479;28;20448;-82
2023/11/01 07:20:48;;;;;;;6.00;2.70;;;10.30;92.60;;;9.52;99.08;97198.44;4962687;28;20464;-80
2023/11/01 07:23:15;;;;;;;3.20;2.23;;;10.40;92.10;;;9.33;98.67;97198.47;4970056;28;20954;-82
2023/11/01 07:25:43;;;;;;;3.43;2.00;;;10.30;91.70;;;9.42;99.57;97192.75;4970717;28;20479;-83
2023/11/01 07:28:10;;;;;;;2.67;2.00;;;10.30;92.10;;;9.76;97.24;97179.59;4954062;28;20580;-73
2023/11/01 07:30:37;;;;;;;2.10;1.80;;;10.60;92.00;;;9.92;95.65;97195.13;4967430;28;20452;-73
2023/11/01 07:33:05;;;;;;;3.23;1.80;;;10.80;91.20;;;9.82;95.01;97191.34;4964249;28;20462;-73
2023/11/01 07:35:34;;;;;;;2.40;1.70;;;10.80;90.60;;;9.86;94.71;97201.47;4970658;28;20466;-72
2023/11/01 07:38:01;;;;;;;3.60;2.27;;;10.80;90.60;;;9.69;93.19;97133.03;4964617;28;20485;-74
2023/11/01 07:40:28;;;;;;;3.23;1.40;;;10.90;90.30;;;10.07;91.57;97188.47;4971543;28;20706;-73
2023/11/01 07:42:56;;;;;;;1.40;1.30;;;11.00;89.80;;;10.28;92.44;97194.38;4958172;28;20460;-72
2023/11/01 07:45:24;;;;;;;1.60;1.50;;;11.10;90.10;;;10.33;91.38;97189.91;4951913;28;20521;-73
2023/11/01 07:47:51;;;;;;;2.20;1.40;;;11.20;89.10;;;10.43;90.91;97194.75;4966255;28;20517;-73
2023/11/01 07:50:18;;;;;;;3.60;1.77;;;11.30;89.10;;;10.28;90.34;97199.78;4964199;28;20464;-73
2023/11/01 07:52:48;;;;;;;2.50;1.63;;;11.30;88.50;;;10.35;91.23;97197.78;4965465;28;20470;-73
2023/11/01 07:55:15;;;;;;;2.70;1.80;;;11.30;88.90;;;10.30;90.80;97190.38;4966253;28;20474;-73
2023/11/01 07:57:43;;;;;;;5.10;1.60;;;11.30;88.80;;;10.58;90.80;97204.28;4970355;28;20569;-72
2023/11/01 08:00:12;;;;;;;2.33;1.63;;;11.40;88.90;;;10.52;89.70;97199.78;4950684;28;20453;-72
2023/11/01 08:02:40;;;;;;;2.00;1.80;;;11.40;88.20;;;10.69;89.54;97195.34;4954654;28;20480;-74
2023/11/01 08:05:08;;;;;;;1.47;1.37;;;11.50;88.30;;;10.71;87.50;97201.34;4968575;28;20464;-72
2023/11/01 08:07:36;;;;;;;1.60;1.30;;;11.70;87.50;;;10.86;88.17;97202.72;4967734;28;20933;-72
2023/11/01 08:10:05;;;;;;;1.40;1.30;;;11.70;87.50;;;11.18;86.14;97196.91;4965934;28;20830;-73
2023/11/01 08:12:33;;;;;;;2.50;1.20;;;11.90;87.10;;;11.25;84.97;97194.88;4967912;28;22280;-72
2023/11/01 08:15:00;;;;;;;1.60;1.20;;;12.10;86.50;;;11.44;83.46;97190.09;4968701;28;20455;-72
2023/11/01 08:17:27;;;;;;;1.60;1.43;;;12.30;85.90;;;11.44;82.44;97186.56;4967402;28;20932;-72
2023/11/01 08:19:55;;;;;;;1.40;1.10;;;12.40;85.10;;;11.55;81.74;97180.28;4965235;28;20457;-74
2023/11/01 08:22:22;;;;;;;2.27;1.23;;;12.50;84.70;;;11.34;82.13;97174.50;4963754;28;20466;-72
2023/11/01 08:24:50;;;;;;;2.63;1.13;;;12.40;84.40;;;11.57;81.28;97166.53;4954043;28;20557;-73
2023/11/01 08:27:19;;;;;;;1.40;1.30;;;12.40;84.40;;;11.87;80.74;97173.56;4969687;28;20473;-72
2023/11/01 08:29:46;;;;;;;1.83;1.37;;;12.60;84.40;;;11.75;79.51;97173.59;4965596;28;20462;-72
2023/11/01 08:32:14;;;;;;;1.40;1.10;;;12.60;83.60;;;11.68;79.50;97168.38;4965010;28;20533;-72
2023/11/01 08:34:41;;;;;;;5.80;1.50;;;12.60;83.10;;;11.77;80.22;97168.78;4968248;28;20462;-72
2023/11/01 08:37:08;;;;;;;2.57;1.33;;;12.70;83.70;;;11.99;77.67;97177.00;4964373;28;20448;-73
2023/11/01 08:39:35;;;;;;;1.50;1.20;;;12.90;82.90;;;11.99;78.61;97195.13;4948920;28;20454;-72
2023/11/01 08:42:03;;;;;;;6.60;1.20;;;12.90;82.90;;;11.91;78.37;97193.66;4966717;28;20459;-71
2023/11/01 08:44:32;;;;;;;3.70;1.00;;;12.90;82.60;;;12.08;77.79;97193.69;4962412;28;20465;-71
2023/11/01 08:47:04;;;;;;;2.03;1.10;;;12.90;82.50;;;12.05;76.91;97196.88;4966613;28;20560;-72
2023/11/01 08:49:31;;;;;;;2.77;1.07;;;12.90;81.90;;;12.17;76.94;97184.09;4964037;28;20467;-72
2023/11/01 08:51:59;;;;;;;1.13;1.03;;;13.00;82.10;;;12.21;77.26;97178.16;4946316;28;20457;-73
2023/11/01 08:54:26;;;;;;;1.83;1.47;;;13.10;82.30;;;12.53;76.15;97185.72;4967891;28;20459;-71
2023/11/01 08:56:54;;;;;;;1.93;1.20;;;13.20;82.10;;;12.57;75.25;97184.16;4966261;28;20459;-72
2023/11/01 08:59:22;;;;;;;2.13;1.10;;;13.40;81.60;;;12.70;74.63;97186.50;4966819;28;20451;-73
2023/11/01 09:01:51;;;;;;;2.70;1.20;;;13.50;81.70;;;12.58;74.62;97166.81;4970436;28;20464;-86
2023/11/01 09:04:18;;;;;;;1.80;1.13;;;13.50;81.20;;;12.51;75.30;97177.84;4983875;28;20577;-78
2023/11/01 09:06:46;;;;;;;1.13;1.03;;;13.40;81.20;;;12.44;76.06;97179.91;4965116;28;20491;-72
2023/11/01 09:09:13;;;;;;;2.13;1.07;;;13.30;81.30;;;12.27;75.93;97166.38;4966992;28;20459;-73
2023/11/01 09:11:40;;;;;;;4.60;1.07;;;13.20;81.20;;;12.43;76.19;97172.81;4961756;28;20470;-72
2023/11/01 09:14:08;;;;;;;4.83;1.63;;;13.20;81.50;;;12.50;75.66;97178.06;4960379;28;20466;-75
2023/11/01 09:16:35;;;;;;;1.20;1.10;;;13.40;81.60;;;12.58;75.50;97169.53;4960929;28;20465;-73
2023/11/01 09:19:04;;;;;;;1.30;1.20;;;13.50;81.30;;;12.72;74.19;97168.09;4963543;28;20502;-88
2023/11/01 09:21:35;;;;;;;1.10;1.00;;;13.50;80.90;;;12.77;75.11;97171.94;4962909;28;20452;-79
2023/11/01 09:24:03;;;;;;;4.40;1.50;;;13.60;81.10;;;12.47;74.98;97128.75;4968102;28;20668;-85
2023/11/01 09:26:31;;;;;;;3.80;1.50;;;13.60;80.90;;;12.50;73.99;97118.47;4971999;28;20539;-72
2023/11/01 09:28:58;;;;;;;3.37;1.40;;;13.70;80.50;;;12.92;72.23;97158.59;4960222;28;20475;-72
2023/11/01 09:31:26;;;;;;;2.00;1.10;;;13.70;79.70;;;12.93;72.21;97167.56;4936660;28;20503;-74
2023/11/01 09:33:54;;;;;;;0.80;0.77;;;13.70;79.50;;;13.00;71.78;97169.00;4970617;28;20497;-76
2023/11/01 09:36:23;;;;;;;1.40;1.07;;;13.80;79.30;;;13.28;70.89;97172.59;4953560;28;21047;-79
2023/11/01 09:38:52;;;;;;;2.20;1.13;;;14.00;79.40;;;13.01;70.75;97172.53;4967487;28;20456;-85
2023/11/01 09:41:28;;;;;;;3.53;1.27;;;14.00;78.50;;;13.01;71.51;97165.22;4953046;28;20586;-76
2023/11/01 09:43:57;;;;;;;2.43;1.20;;;13.90;79.00;;;13.21;70.44;97166.53;4971160;28;20451;-78
2023/11/01 09:46:25;;;;;;;2.53;0.87;;;14.00;78.60;;;13.11;70.23;97169.13;4962168;28;20458;-78
2023/11/01 09:48:55;;;;;;;2.60;0.87;;;14.00;78.30;;;13.03;70.09;97162.25;4962766;28;20892;-70
2023/11/01 09:51:24;;;;;;;1.90;1.13;;;13.90;78.00;;;13.17;69.97;97160.00;4965862;28;20457;-79
2023/11/01 09:53:51;;;;;;;3.23;0.90;;;13.90;78.00;;;13.25;68.99;97156.81;4967357;28;20972;-73
2023/11/01 09:56:22;;;;;;;3.33;1.27;;;14.00;77.40;;;13.36;68.46;97143.38;4966571;28;20514;-75
2023/11/01 09:58:49;;;;;;;1.37;1.27;;;14.10;77.10;;;13.21;68.73;97144.03;4968899;28;20454;-73
2023/11/01 10:01:17;;;;;;;4.57;1.20;;;14.10;76.90;;;13.31;68.45;97139.53;4963678;28;20523;-71
2023/11/01 10:03:45;;;;;;;1.80;1.00;;;14.10;76.80;;;13.54;67.58;97132.19;4980850;28;20469;-73
2023/11/01 10:06:12;;;;;;;2.87;1.30;;;14.30;76.60;;;13.76;66.83;97134.03;4961907;28;20456;-71
2023/11/01 10:08:41;;;;;;;1.20;0.83;;;14.50;76.30;;;13.76;65.66;97125.91;4964903;28;20485;-72
2023/11/01 10:11:08;;;;;;;3.00;0.70;;;14.60;75.40;;;13.98;65.88;97125.81;4963926;28;20467;-71
2023/11/01 10:13:35;;;;;;;2.90;1.40;;;14.80;75.60;;;13.96;65.14;97117.09;4955274;28;20563;-72
2023/11/01 10:16:04;;;;;;;2.13;1.30;;;14.90;75.20;;;14.22;64.48;97127.34;4959344;28;20890;-71
2023/11/01 10:18:32;;;;;;;2.77;1.13;;;15.00;74.90;;;14.51;63.29;97129.69;4952849;28;20448;-71
2023/11/01 10:21:00;;;;;;;4.63;1.00;;;15.20;74.40;;;14.50;63.21;97119.91;4969358;28;20520;-71
2023/11/01 10:23:27;;;;;;;2.03;1.27;;;15.40;74.00;;;14.70;63.19;97116.47;4963060;28;20932;-71
2023/11/01 10:25:56;;;;;;;1.57;0.80;;;15.50;74.20;;;14.38;63.05;97120.94;4972883;28;20456;-70